sensor_id;sensor_type;location;lat;lon;timestamp;P1;durP1;ratioP1;P2;durP2;ratioP2
60714;SDS011;46564;53.096;8.246;2023-11-21T00:04:19;24.58;;;8.40;;
60714;SDS011;46564;53.096;8.246;2023-11-21T00:09:20;27.63;;;8.65;;
60714;SDS011;46564;53.096;8.246;2023-11-21T00:14:22;26.88;;;9.02;;
60714;SDS011;46564;53.096;8.246;2023-11-21T00:19:23;20.27;;;7.53;;
60714;SDS011;46564;53.096;8.246;2023-11-21T00:24:24;27.02;;;9.10;;
60714;SDS011;46564;53.096;8.246;2023-11-21T00:29:26;23.90;;;8.68;;
60714;SDS011;46564;53.096;8.246;2023-11-21T00:34:27;21.67;;;8.20;;
60714;SDS011;46564;53.096;8.246;2023-11-21T00:39:28;23.42;;;8.93;;
60714;SDS011;46564;53.096;8.246;2023-11-21T00:44:30;23.20;;;8.57;;
60714;SDS011;46564;53.096;8.246;2023-11-21T00:49:31;23.73;;;8.77;;
60714;SDS011;46564;53.096;8.246;2023-11-21T00:54:32;22.70;;;8.73;;
60714;SDS011;46564;53.096;8.246;2023-11-21T00:59:35;22.33;;;8.55;;
60714;SDS011;46564;53.096;8.246;2023-11-21T01:04:37;20.13;;;8.25;;
60714;SDS011;46564;53.096;8.246;2023-11-21T01:09:38;25.77;;;9.80;;
60714;SDS011;46564;53.096;8.246;2023-11-21T01:14:39;23.45;;;10.05;;
60714;SDS011;46564;53.096;8.246;2023-11-21T01:19:40;25.88;;;9.68;;
60714;SDS011;46564;53.096;8.246;2023-11-21T01:24:42;28.48;;;10.02;;
60714;SDS011;46564;53.096;8.246;2023-11-21T01:29:43;24.13;;;9.20;;
60714;SDS011;46564;53.096;8.246;2023-11-21T01:34:44;30.90;;;10.30;;
60714;SDS011;46564;53.096;8.246;2023-11-21T01:39:46;24.27;;;9.43;;
60714;SDS011;46564;53.096;8.246;2023-11-21T01:44:47;23.45;;;9.35;;
60714;SDS011;46564;53.096;8.246;2023-11-21T01:49:48;27.77;;;9.77;;
60714;SDS011;46564;53.096;8.246;2023-11-21T01:54:49;29.15;;;9.52;;
60714;SDS011;46564;53.096;8.246;2023-11-21T01:59:51;24.85;;;9.57;;
60714;SDS011;46564;53.096;8.246;2023-11-21T02:04:54;40.90;;;10.02;;
60714;SDS011;46564;53.096;8.246;2023-11-21T02:09:55;31.63;;;9.00;;
60714;SDS011;46564;53.096;8.246;2023-11-21T02:14:56;27.15;;;9.43;;
60714;SDS011;46564;53.096;8.246;2023-11-21T02:19:57;29.33;;;10.10;;
60714;SDS011;46564;53.096;8.246;2023-11-21T02:24:59;27.80;;;9.40;;
60714;SDS011;46564;53.096;8.246;2023-11-21T02:30:00;36.50;;;10.05;;
60714;SDS011;46564;53.096;8.246;2023-11-21T02:35:01;23.98;;;8.63;;
60714;SDS011;46564;53.096;8.246;2023-11-21T02:40:03;33.90;;;10.63;;
60714;SDS011;46564;53.096;8.246;2023-11-21T02:45:05;26.73;;;10.27;;
60714;SDS011;46564;53.096;8.246;2023-11-21T02:50:07;26.35;;;10.75;;
60714;SDS011;46564;53.096;8.246;2023-11-21T02:55:08;24.48;;;10.27;;
60714;SDS011;46564;53.096;8.246;2023-11-21T03:00:09;24.40;;;10.27;;
60714;SDS011;46564;53.096;8.246;2023-11-21T03:05:11;20.80;;;9.27;;
60714;SDS011;46564;53.096;8.246;2023-11-21T03:10:13;27.33;;;11.13;;
60714;SDS011;46564;53.096;8.246;2023-11-21T03:15:14;27.92;;;11.25;;
60714;SDS011;46564;53.096;8.246;2023-11-21T03:20:15;23.83;;;10.77;;
60714;SDS011;46564;53.096;8.246;2023-11-21T03:25:16;30.02;;;10.65;;
60714;SDS011;46564;53.096;8.246;2023-11-21T03:30:18;25.90;;;9.77;;
60714;SDS011;46564;53.096;8.246;2023-11-21T03:35:19;26.33;;;10.50;;
60714;SDS011;46564;53.096;8.246;2023-11-21T03:40:21;22.05;;;11.05;;
60714;SDS011;46564;53.096;8.246;2023-11-21T03:45:22;25.80;;;10.25;;
60714;SDS011;46564;53.096;8.246;2023-11-21T03:50:23;24.20;;;9.63;;
60714;SDS011;46564;53.096;8.246;2023-11-21T03:55:25;26.33;;;9.68;;
60714;SDS011;46564;53.096;8.246;2023-11-21T04:00:26;23.63;;;9.77;;
60714;SDS011;46564;53.096;8.246;2023-11-21T04:05:27;26.17;;;10.50;;
60714;SDS011;46564;53.096;8.246;2023-11-21T04:10:28;32.80;;;12.20;;
60714;SDS011;46564;53.096;8.246;2023-11-21T04:15:30;30.25;;;11.70;;
60714;SDS011;46564;53.096;8.246;2023-11-21T04:20:31;36.35;;;12.88;;
60714;SDS011;46564;53.096;8.246;2023-11-21T04:25:32;38.58;;;12.43;;
60714;SDS011;46564;53.096;8.246;2023-11-21T04:30:34;38.63;;;12.68;;
60714;SDS011;46564;53.096;8.246;2023-11-21T04:35:35;37.97;;;14.02;;
60714;SDS011;46564;53.096;8.246;2023-11-21T04:40:36;34.60;;;13.20;;
60714;SDS011;46564;53.096;8.246;2023-11-21T04:45:38;40.08;;;14.18;;
60714;SDS011;46564;53.096;8.246;2023-11-21T04:50:39;38.45;;;14.45;;
60714;SDS011;46564;53.096;8.246;2023-11-21T04:55:40;36.60;;;15.18;;
60714;SDS011;46564;53.096;8.246;2023-11-21T05:00:42;38.33;;;15.95;;
60714;SDS011;46564;53.096;8.246;2023-11-21T05:05:43;43.97;;;17.05;;
60714;SDS011;46564;53.096;8.246;2023-11-21T05:10:44;41.67;;;16.30;;
60714;SDS011;46564;53.096;8.246;2023-11-21T05:15:45;43.95;;;17.00;;
60714;SDS011;46564;53.096;8.246;2023-11-21T05:20:47;38.47;;;16.45;;
60714;SDS011;46564;53.096;8.246;2023-11-21T05:25:48;36.90;;;15.50;;
60714;SDS011;46564;53.096;8.246;2023-11-21T05:30:49;34.00;;;13.50;;
60714;SDS011;46564;53.096;8.246;2023-11-21T05:35:55;34.47;;;14.68;;
60714;SDS011;46564;53.096;8.246;2023-11-21T05:40:57;38.10;;;15.77;;
60714;SDS011;46564;53.096;8.246;2023-11-21T05:45:58;32.35;;;14.23;;
60714;SDS011;46564;53.096;8.246;2023-11-21T05:50:59;35.40;;;15.13;;
60714;SDS011;46564;53.096;8.246;2023-11-21T05:56:01;38.75;;;14.88;;
60714;SDS011;46564;53.096;8.246;2023-11-21T06:01:02;37.25;;;15.30;;
60714;SDS011;46564;53.096;8.246;2023-11-21T06:06:06;38.03;;;15.95;;
60714;SDS011;46564;53.096;8.246;2023-11-21T06:11:07;36.53;;;14.35;;
60714;SDS011;46564;53.096;8.246;2023-11-21T06:16:09;39.97;;;17.05;;
60714;SDS011;46564;53.096;8.246;2023-11-21T06:21:10;33.28;;;15.60;;
60714;SDS011;46564;53.096;8.246;2023-11-21T06:26:11;34.97;;;15.20;;
60714;SDS011;46564;53.096;8.246;2023-11-21T06:31:12;29.85;;;13.93;;
60714;SDS011;46564;53.096;8.246;2023-11-21T06:36:14;28.20;;;13.20;;
60714;SDS011;46564;53.096;8.246;2023-11-21T06:41:15;30.42;;;12.52;;
60714;SDS011;46564;53.096;8.246;2023-11-21T06:46:16;26.80;;;13.15;;
60714;SDS011;46564;53.096;8.246;2023-11-21T06:51:18;27.75;;;13.02;;
60714;SDS011;46564;53.096;8.246;2023-11-21T06:56:19;26.73;;;11.85;;
60714;SDS011;46564;53.096;8.246;2023-11-21T07:01:20;22.35;;;10.85;;
60714;SDS011;46564;53.096;8.246;2023-11-21T07:06:22;20.55;;;10.13;;
60714;SDS011;46564;53.096;8.246;2023-11-21T07:11:23;19.95;;;9.05;;
60714;SDS011;46564;53.096;8.246;2023-11-21T07:16:24;19.20;;;9.70;;
60714;SDS011;46564;53.096;8.246;2023-11-21T07:21:25;16.20;;;8.25;;
60714;SDS011;46564;53.096;8.246;2023-11-21T07:26:27;17.95;;;8.48;;
60714;SDS011;46564;53.096;8.246;2023-11-21T07:31:28;18.27;;;9.38;;
60714;SDS011;46564;53.096;8.246;2023-11-21T07:36:30;20.75;;;10.05;;
60714;SDS011;46564;53.096;8.246;2023-11-21T07:41:31;18.95;;;8.75;;
60714;SDS011;46564;53.096;8.246;2023-11-21T07:46:33;18.90;;;9.38;;
60714;SDS011;46564;53.096;8.246;2023-11-21T07:51:34;19.33;;;9.85;;
60714;SDS011;46564;53.096;8.246;2023-11-21T07:56:35;20.38;;;10.55;;
60714;SDS011;46564;53.096;8.246;2023-11-21T08:01:37;18.42;;;10.05;;
60714;SDS011;46564;53.096;8.246;2023-11-21T08:06:38;20.83;;;9.43;;
60714;SDS011;46564;53.096;8.246;2023-11-21T08:11:39;21.70;;;9.65;;
60714;SDS011;46564;53.096;8.246;2023-11-21T08:16:40;22.33;;;9.40;;
60714;SDS011;46564;53.096;8.246;2023-11-21T08:21:42;22.48;;;10.02;;
60714;SDS011;46564;53.096;8.246;2023-11-21T08:26:43;19.90;;;9.80;;
60714;SDS011;46564;53.096;8.246;2023-11-21T08:31:44;17.83;;;9.20;;
60714;SDS011;46564;53.096;8.246;2023-11-21T08:36:46;25.83;;;11.70;;
60714;SDS011;46564;53.096;8.246;2023-11-21T08:41:47;21.00;;;11.10;;
60714;SDS011;46564;53.096;8.246;2023-11-21T08:46:49;26.95;;;12.23;;
60714;SDS011;46564;53.096;8.246;2023-11-21T08:51:50;21.77;;;11.13;;
60714;SDS011;46564;53.096;8.246;2023-11-21T08:56:52;19.42;;;10.43;;
60714;SDS011;46564;53.096;8.246;2023-11-21T09:01:53;21.80;;;10.88;;
60714;SDS011;46564;53.096;8.246;2023-11-21T09:06:55;19.92;;;10.02;;
60714;SDS011;46564;53.096;8.246;2023-11-21T09:11:56;20.17;;;10.38;;
60714;SDS011;46564;53.096;8.246;2023-11-21T09:16:57;16.45;;;9.63;;
60714;SDS011;46564;53.096;8.246;2023-11-21T09:21:59;20.50;;;10.13;;
60714;SDS011;46564;53.096;8.246;2023-11-21T09:27:00;26.63;;;11.00;;
60714;SDS011;46564;53.096;8.246;2023-11-21T09:32:01;24.00;;;11.60;;
60714;SDS011;46564;53.096;8.246;2023-11-21T09:37:03;19.50;;;10.13;;
60714;SDS011;46564;53.096;8.246;2023-11-21T09:42:04;24.55;;;11.23;;
60714;SDS011;46564;53.096;8.246;2023-11-21T09:47:09;28.35;;;10.68;;
60714;SDS011;46564;53.096;8.246;2023-11-21T09:52:11;22.55;;;10.52;;
60714;SDS011;46564;53.096;8.246;2023-11-21T09:57:17;21.20;;;10.15;;
60714;SDS011;46564;53.096;8.246;2023-11-21T10:02:19;21.63;;;10.07;;
60714;SDS011;46564;53.096;8.246;2023-11-21T10:07:21;21.25;;;9.57;;
60714;SDS011;46564;53.096;8.246;2023-11-21T10:12:23;19.73;;;9.02;;
60714;SDS011;46564;53.096;8.246;2023-11-21T10:17:24;19.17;;;9.15;;
60714;SDS011;46564;53.096;8.246;2023-11-21T10:22:26;18.58;;;8.65;;
60714;SDS011;46564;53.096;8.246;2023-11-21T10:27:27;16.30;;;8.43;;
60714;SDS011;46564;53.096;8.246;2023-11-21T10:32:29;17.83;;;8.88;;
60714;SDS011;46564;53.096;8.246;2023-11-21T10:37:30;18.60;;;8.70;;
60714;SDS011;46564;53.096;8.246;2023-11-21T10:42:32;16.15;;;7.43;;
60714;SDS011;46564;53.096;8.246;2023-11-21T10:47:33;16.05;;;8.23;;
60714;SDS011;46564;53.096;8.246;2023-11-21T10:52:35;19.48;;;8.65;;
60714;SDS011;46564;53.096;8.246;2023-11-21T10:57:36;15.13;;;7.72;;
60714;SDS011;46564;53.096;8.246;2023-11-21T11:02:37;15.80;;;8.25;;
60714;SDS011;46564;53.096;8.246;2023-11-21T11:07:39;16.70;;;8.68;;
60714;SDS011;46564;53.096;8.246;2023-11-21T11:12:43;18.55;;;8.52;;
60714;SDS011;46564;53.096;8.246;2023-11-21T11:17:47;15.20;;;8.07;;
60714;SDS011;46564;53.096;8.246;2023-11-21T11:32:58;14.10;;;7.68;;
60714;SDS011;46564;53.096;8.246;2023-11-21T11:38:05;17.27;;;8.90;;
60714;SDS011;46564;53.096;8.246;2023-11-21T11:43:07;13.23;;;6.45;;
60714;SDS011;46564;53.096;8.246;2023-11-21T11:48:10;13.52;;;7.32;;
60714;SDS011;46564;53.096;8.246;2023-11-21T11:53:13;12.35;;;6.65;;
60714;SDS011;46564;53.096;8.246;2023-11-21T11:58:14;12.43;;;6.68;;
60714;SDS011;46564;53.096;8.246;2023-11-21T12:03:15;13.30;;;5.57;;
60714;SDS011;46564;53.096;8.246;2023-11-21T12:08:17;14.52;;;6.75;;
60714;SDS011;46564;53.096;8.246;2023-11-21T12:13:18;11.68;;;6.20;;
60714;SDS011;46564;53.096;8.246;2023-11-21T12:18:19;18.58;;;8.13;;
60714;SDS011;46564;53.096;8.246;2023-11-21T12:23:21;17.25;;;7.63;;
60714;SDS011;46564;53.096;8.246;2023-11-21T12:28:23;14.38;;;5.95;;
60714;SDS011;46564;53.096;8.246;2023-11-21T12:33:24;12.20;;;6.05;;
60714;SDS011;46564;53.096;8.246;2023-11-21T12:38:25;11.93;;;5.30;;
60714;SDS011;46564;53.096;8.246;2023-11-21T12:43:34;10.27;;;5.13;;
60714;SDS011;46564;53.096;8.246;2023-11-21T12:48:39;9.80;;;4.95;;
60714;SDS011;46564;53.096;8.246;2023-11-21T12:53:40;8.88;;;4.65;;
60714;SDS011;46564;53.096;8.246;2023-11-21T12:58:43;14.43;;;4.75;;
60714;SDS011;46564;53.096;8.246;2023-11-21T13:03:48;12.23;;;4.97;;
60714;SDS011;46564;53.096;8.246;2023-11-21T13:08:51;8.60;;;3.72;;
60714;SDS011;46564;53.096;8.246;2023-11-21T13:13:52;8.80;;;4.20;;
60714;SDS011;46564;53.096;8.246;2023-11-21T13:18:53;9.60;;;5.05;;
60714;SDS011;46564;53.096;8.246;2023-11-21T13:23:55;8.38;;;4.45;;
60714;SDS011;46564;53.096;8.246;2023-11-21T13:28:56;9.27;;;4.13;;
60714;SDS011;46564;53.096;8.246;2023-11-21T13:33:57;14.63;;;4.72;;
60714;SDS011;46564;53.096;8.246;2023-11-21T13:38:58;12.68;;;5.90;;
60714;SDS011;46564;53.096;8.246;2023-11-21T13:44:00;12.88;;;4.70;;
60714;SDS011;46564;53.096;8.246;2023-11-21T13:49:02;10.68;;;5.25;;
60714;SDS011;46564;53.096;8.246;2023-11-21T13:54:03;10.13;;;4.65;;
60714;SDS011;46564;53.096;8.246;2023-11-21T13:59:04;10.57;;;4.57;;
60714;SDS011;46564;53.096;8.246;2023-11-21T14:04:05;10.40;;;4.75;;
60714;SDS011;46564;53.096;8.246;2023-11-21T14:09:07;9.32;;;4.70;;
60714;SDS011;46564;53.096;8.246;2023-11-21T14:14:08;10.57;;;4.45;;
60714;SDS011;46564;53.096;8.246;2023-11-21T14:19:09;13.82;;;5.05;;
60714;SDS011;46564;53.096;8.246;2023-11-21T14:24:11;15.43;;;5.78;;
60714;SDS011;46564;53.096;8.246;2023-11-21T14:29:13;10.80;;;4.38;;
60714;SDS011;46564;53.096;8.246;2023-11-21T14:34:14;10.20;;;5.00;;
60714;SDS011;46564;53.096;8.246;2023-11-21T14:39:18;11.18;;;4.53;;
60714;SDS011;46564;53.096;8.246;2023-11-21T14:44:19;11.77;;;4.90;;
60714;SDS011;46564;53.096;8.246;2023-11-21T14:49:21;13.52;;;4.90;;
60714;SDS011;46564;53.096;8.246;2023-11-21T14:54:22;10.30;;;4.80;;
60714;SDS011;46564;53.096;8.246;2023-11-21T14:59:23;10.60;;;4.63;;
60714;SDS011;46564;53.096;8.246;2023-11-21T15:04:25;12.88;;;4.90;;
60714;SDS011;46564;53.096;8.246;2023-11-21T15:09:28;9.43;;;4.25;;
60714;SDS011;46564;53.096;8.246;2023-11-21T15:14:29;8.57;;;4.18;;
60714;SDS011;46564;53.096;8.246;2023-11-21T15:19:31;14.70;;;5.72;;
60714;SDS011;46564;53.096;8.246;2023-11-21T15:24:32;11.82;;;5.65;;
60714;SDS011;46564;53.096;8.246;2023-11-21T15:29:33;10.20;;;5.43;;
60714;SDS011;46564;53.096;8.246;2023-11-21T15:34:35;11.45;;;5.63;;
60714;SDS011;46564;53.096;8.246;2023-11-21T15:39:37;9.98;;;4.65;;
60714;SDS011;46564;53.096;8.246;2023-11-21T15:44:38;11.63;;;5.38;;
60714;SDS011;46564;53.096;8.246;2023-11-21T15:49:40;10.63;;;5.38;;
60714;SDS011;46564;53.096;8.246;2023-11-21T15:54:41;9.30;;;4.80;;
60714;SDS011;46564;53.096;8.246;2023-11-21T15:59:42;12.20;;;4.53;;
60714;SDS011;46564;53.096;8.246;2023-11-21T16:04:44;9.65;;;4.82;;
60714;SDS011;46564;53.096;8.246;2023-11-21T16:09:46;12.23;;;5.03;;
60714;SDS011;46564;53.096;8.246;2023-11-21T16:14:47;8.23;;;3.97;;
60714;SDS011;46564;53.096;8.246;2023-11-21T16:19:48;9.05;;;3.70;;
60714;SDS011;46564;53.096;8.246;2023-11-21T16:24:50;8.82;;;4.10;;
60714;SDS011;46564;53.096;8.246;2023-11-21T16:29:51;8.23;;;3.92;;
60714;SDS011;46564;53.096;8.246;2023-11-21T16:34:52;7.57;;;3.45;;
60714;SDS011;46564;53.096;8.246;2023-11-21T16:39:53;7.50;;;3.65;;
60714;SDS011;46564;53.096;8.246;2023-11-21T16:44:55;6.55;;;3.15;;
60714;SDS011;46564;53.096;8.246;2023-11-21T16:49:57;7.35;;;3.22;;
60714;SDS011;46564;53.096;8.246;2023-11-21T16:54:58;8.98;;;3.17;;
60714;SDS011;46564;53.096;8.246;2023-11-21T16:59:59;6.78;;;2.88;;
60714;SDS011;46564;53.096;8.246;2023-11-21T17:05:01;7.60;;;3.40;;
60714;SDS011;46564;53.096;8.246;2023-11-21T17:10:02;6.97;;;3.28;;
60714;SDS011;46564;53.096;8.246;2023-11-21T17:15:03;9.30;;;3.67;;
60714;SDS011;46564;53.096;8.246;2023-11-21T17:20:05;6.25;;;2.78;;
60714;SDS011;46564;53.096;8.246;2023-11-21T17:25:07;7.93;;;3.42;;
60714;SDS011;46564;53.096;8.246;2023-11-21T17:30:09;10.55;;;3.95;;
60714;SDS011;46564;53.096;8.246;2023-11-21T17:35:10;11.93;;;4.45;;
60714;SDS011;46564;53.096;8.246;2023-11-21T17:40:12;9.23;;;3.17;;
60714;SDS011;46564;53.096;8.246;2023-11-21T17:45:13;7.97;;;3.30;;
60714;SDS011;46564;53.096;8.246;2023-11-21T17:50:14;7.78;;;3.22;;
60714;SDS011;46564;53.096;8.246;2023-11-21T17:55:15;7.70;;;3.25;;
60714;SDS011;46564;53.096;8.246;2023-11-21T18:00:17;6.10;;;3.20;;
60714;SDS011;46564;53.096;8.246;2023-11-21T18:05:19;7.75;;;3.50;;
60714;SDS011;46564;53.096;8.246;2023-11-21T18:10:20;8.88;;;3.33;;
60714;SDS011;46564;53.096;8.246;2023-11-21T18:15:21;8.10;;;3.35;;
60714;SDS011;46564;53.096;8.246;2023-11-21T18:20:22;10.52;;;3.53;;
60714;SDS011;46564;53.096;8.246;2023-11-21T18:25:24;11.20;;;4.07;;
60714;SDS011;46564;53.096;8.246;2023-11-21T18:30:36;10.32;;;3.78;;
60714;SDS011;46564;53.096;8.246;2023-11-21T18:35:38;9.30;;;3.17;;
60714;SDS011;46564;53.096;8.246;2023-11-21T18:40:39;11.00;;;3.58;;
60714;SDS011;46564;53.096;8.246;2023-11-21T18:45:40;9.48;;;3.58;;
60714;SDS011;46564;53.096;8.246;2023-11-21T18:50:42;8.27;;;3.30;;
60714;SDS011;46564;53.096;8.246;2023-11-21T18:55:43;9.32;;;2.97;;
60714;SDS011;46564;53.096;8.246;2023-11-21T19:00:45;9.88;;;4.07;;
60714;SDS011;46564;53.096;8.246;2023-11-21T19:05:46;6.70;;;3.05;;
60714;SDS011;46564;53.096;8.246;2023-11-21T19:10:47;9.02;;;3.20;;
60714;SDS011;46564;53.096;8.246;2023-11-21T19:15:49;6.72;;;3.13;;
60714;SDS011;46564;53.096;8.246;2023-11-21T19:20:50;9.00;;;4.00;;
60714;SDS011;46564;53.096;8.246;2023-11-21T19:25:51;9.50;;;3.72;;
60714;SDS011;46564;53.096;8.246;2023-11-21T19:30:53;7.65;;;3.35;;
60714;SDS011;46564;53.096;8.246;2023-11-21T19:35:54;7.22;;;3.58;;
60714;SDS011;46564;53.096;8.246;2023-11-21T19:40:55;7.88;;;3.58;;
60714;SDS011;46564;53.096;8.246;2023-11-21T19:45:57;9.18;;;3.63;;
60714;SDS011;46564;53.096;8.246;2023-11-21T19:50:59;7.40;;;3.17;;
60714;SDS011;46564;53.096;8.246;2023-11-21T19:56:04;10.95;;;4.18;;
60714;SDS011;46564;53.096;8.246;2023-11-21T20:01:05;9.43;;;4.07;;
60714;SDS011;46564;53.096;8.246;2023-11-21T20:06:07;11.20;;;3.88;;
60714;SDS011;46564;53.096;8.246;2023-11-21T20:11:08;13.80;;;4.78;;
60714;SDS011;46564;53.096;8.246;2023-11-21T20:16:09;9.48;;;4.47;;
60714;SDS011;46564;53.096;8.246;2023-11-21T20:21:11;14.80;;;5.88;;
60714;SDS011;46564;53.096;8.246;2023-11-21T20:26:19;15.40;;;6.68;;
60714;SDS011;46564;53.096;8.246;2023-11-21T20:31:20;13.48;;;5.72;;
60714;SDS011;46564;53.096;8.246;2023-11-21T20:36:22;19.10;;;7.97;;
60714;SDS011;46564;53.096;8.246;2023-11-21T20:41:23;14.95;;;6.93;;
60714;SDS011;46564;53.096;8.246;2023-11-21T20:46:24;16.27;;;6.90;;
60714;SDS011;46564;53.096;8.246;2023-11-21T20:51:26;12.80;;;5.60;;
60714;SDS011;46564;53.096;8.246;2023-11-21T20:56:27;15.05;;;5.25;;
60714;SDS011;46564;53.096;8.246;2023-11-21T21:01:28;18.02;;;5.57;;
60714;SDS011;46564;53.096;8.246;2023-11-21T21:06:30;21.20;;;8.23;;
60714;SDS011;46564;53.096;8.246;2023-11-21T21:11:31;17.27;;;6.82;;
60714;SDS011;46564;53.096;8.246;2023-11-21T21:16:33;12.95;;;6.28;;
60714;SDS011;46564;53.096;8.246;2023-11-21T21:21:34;13.68;;;5.63;;
60714;SDS011;46564;53.096;8.246;2023-11-21T21:26:35;8.77;;;4.35;;
60714;SDS011;46564;53.096;8.246;2023-11-21T21:31:37;12.45;;;4.75;;
60714;SDS011;46564;53.096;8.246;2023-11-21T21:36:38;10.57;;;5.10;;
60714;SDS011;46564;53.096;8.246;2023-11-21T21:41:39;13.48;;;6.55;;
60714;SDS011;46564;53.096;8.246;2023-11-21T21:46:41;14.50;;;6.80;;
60714;SDS011;46564;53.096;8.246;2023-11-21T21:51:42;12.95;;;7.30;;
60714;SDS011;46564;53.096;8.246;2023-11-21T21:56:44;16.60;;;8.15;;
60714;SDS011;46564;53.096;8.246;2023-11-21T22:01:45;16.02;;;6.90;;
60714;SDS011;46564;53.096;8.246;2023-11-21T22:06:47;15.38;;;6.80;;
60714;SDS011;46564;53.096;8.246;2023-11-21T22:11:48;18.15;;;7.45;;
60714;SDS011;46564;53.096;8.246;2023-11-21T22:16:49;14.45;;;6.57;;
60714;SDS011;46564;53.096;8.246;2023-11-21T22:21:51;13.82;;;5.90;;
60714;SDS011;46564;53.096;8.246;2023-11-21T22:26:52;12.30;;;5.78;;
60714;SDS011;46564;53.096;8.246;2023-11-21T22:31:53;10.18;;;4.95;;
60714;SDS011;46564;53.096;8.246;2023-11-21T22:36:55;12.75;;;5.00;;
60714;SDS011;46564;53.096;8.246;2023-11-21T22:41:56;11.15;;;5.60;;
60714;SDS011;46564;53.096;8.246;2023-11-21T22:46:57;15.52;;;5.50;;
60714;SDS011;46564;53.096;8.246;2023-11-21T22:51:59;13.55;;;5.22;;
60714;SDS011;46564;53.096;8.246;2023-11-21T22:57:01;15.93;;;5.50;;
60714;SDS011;46564;53.096;8.246;2023-11-21T23:02:02;11.75;;;5.72;;
60714;SDS011;46564;53.096;8.246;2023-11-21T23:07:04;11.30;;;5.10;;
60714;SDS011;46564;53.096;8.246;2023-11-21T23:12:06;10.88;;;5.00;;
60714;SDS011;46564;53.096;8.246;2023-11-21T23:17:07;13.68;;;5.47;;
60714;SDS011;46564;53.096;8.246;2023-11-21T23:22:08;14.32;;;5.80;;
60714;SDS011;46564;53.096;8.246;2023-11-21T23:27:10;13.52;;;5.68;;
60714;SDS011;46564;53.096;8.246;2023-11-21T23:32:13;12.95;;;5.30;;
60714;SDS011;46564;53.096;8.246;2023-11-21T23:37:15;15.25;;;5.47;;
60714;SDS011;46564;53.096;8.246;2023-11-21T23:42:17;11.88;;;5.18;;
60714;SDS011;46564;53.096;8.246;2023-11-21T23:47:18;15.20;;;7.05;;
60714;SDS011;46564;53.096;8.246;2023-11-21T23:52:20;13.32;;;6.22;;
60714;SDS011;46564;53.096;8.246;2023-11-21T23:57:21;13.73;;;5.82;;
